sensor_id;sensor_type;location;lat;lon;timestamp;pressure;altitude;pressure_sealevel;temperature;humidity
57024;BME280;42916;54.346;18.562;2022-07-21T00:00:03;100775.93;;;18.91;88.67
57024;BME280;42916;54.346;18.562;2022-07-21T00:02:53;100771.34;;;18.94;88.92
57024;BME280;42916;54.346;18.562;2022-07-21T00:05:21;100773.31;;;18.95;88.83
57024;BME280;42916;54.346;18.562;2022-07-21T00:07:49;100775.49;;;18.96;88.87
57024;BME280;42916;54.346;18.562;2022-07-21T00:10:16;100776.16;;;18.98;88.84
57024;BME280;42916;54.346;18.562;2022-07-21T00:12:43;100788.17;;;18.99;88.79
57024;BME280;42916;54.346;18.562;2022-07-21T00:15:11;100789.95;;;18.98;88.90
57024;BME280;42916;54.346;18.562;2022-07-21T00:17:39;100787.79;;;18.96;88.86
57024;BME280;42916;54.346;18.562;2022-07-21T00:20:07;100788.55;;;18.93;88.88
57024;BME280;42916;54.346;18.562;2022-07-21T00:22:35;100781.55;;;18.87;88.95
57024;BME280;42916;54.346;18.562;2022-07-21T00:25:03;100787.30;;;18.83;88.98
57024;BME280;42916;54.346;18.562;2022-07-21T00:27:30;100782.06;;;18.81;89.05
57024;BME280;42916;54.346;18.562;2022-07-21T00:29:57;100784.25;;;18.78;89.24
57024;BME280;42916;54.346;18.562;2022-07-21T00:32:24;100785.45;;;18.76;89.44
57024;BME280;42916;54.346;18.562;2022-07-21T00:34:51;100788.84;;;18.71;89.46
57024;BME280;42916;54.346;18.562;2022-07-21T00:37:18;100784.84;;;18.67;89.80
57024;BME280;42916;54.346;18.562;2022-07-21T00:39:45;100786.02;;;18.62;90.09
57024;BME280;42916;54.346;18.562;2022-07-21T00:42:26;100786.67;;;18.58;90.21
57024;BME280;42916;54.346;18.562;2022-07-21T00:44:54;100782.39;;;18.57;90.45
57024;BME280;42916;54.346;18.562;2022-07-21T00:47:22;100782.40;;;18.57;90.60
57024;BME280;42916;54.346;18.562;2022-07-21T00:49:50;100779.98;;;18.57;90.78
57024;BME280;42916;54.346;18.562;2022-07-21T00:52:17;100777.02;;;18.58;91.22
57024;BME280;42916;54.346;18.562;2022-07-21T00:54:44;100779.71;;;18.60;91.28
57024;BME280;42916;54.346;18.562;2022-07-21T00:57:12;100786.86;;;18.60;91.62
57024;BME280;42916;54.346;18.562;2022-07-21T00:59:40;100789.73;;;18.61;91.85
57024;BME280;42916;54.346;18.562;2022-07-21T01:02:08;100785.45;;;18.62;91.94
57024;BME280;42916;54.346;18.562;2022-07-21T01:04:36;100791.40;;;18.67;92.18
57024;BME280;42916;54.346;18.562;2022-07-21T01:07:04;100792.05;;;18.71;92.32
57024;BME280;42916;54.346;18.562;2022-07-21T01:09:32;100797.65;;;18.75;92.26
57024;BME280;42916;54.346;18.562;2022-07-21T01:12:00;100805.17;;;18.80;92.43
57024;BME280;42916;54.346;18.562;2022-07-21T01:14:27;100796.02;;;18.86;92.65
57024;BME280;42916;54.346;18.562;2022-07-21T01:16:54;100791.30;;;18.91;92.53
57024;BME280;42916;54.346;18.562;2022-07-21T01:19:21;100785.36;;;18.93;92.27
57024;BME280;42916;54.346;18.562;2022-07-21T01:21:48;100782.52;;;18.95;92.19
57024;BME280;42916;54.346;18.562;2022-07-21T01:24:15;100782.43;;;18.97;91.96
57024;BME280;42916;54.346;18.562;2022-07-21T01:26:49;100780.64;;;18.98;91.90
57024;BME280;42916;54.346;18.562;2022-07-21T01:29:17;100781.75;;;19.01;91.91
57024;BME280;42916;54.346;18.562;2022-07-21T01:31:46;100781.35;;;19.02;91.96
57024;BME280;42916;54.346;18.562;2022-07-21T01:34:13;100777.73;;;19.04;92.11
57024;BME280;42916;54.346;18.562;2022-07-21T01:36:40;100778.48;;;19.05;92.02
57024;BME280;42916;54.346;18.562;2022-07-21T01:39:07;100775.02;;;19.02;91.83
57024;BME280;42916;54.346;18.562;2022-07-21T01:41:53;100771.23;;;18.99;91.98
57024;BME280;42916;54.346;18.562;2022-07-21T01:44:20;100767.39;;;18.99;91.82
57024;BME280;42916;54.346;18.562;2022-07-21T01:46:49;100765.89;;;19.00;92.01
57024;BME280;42916;54.346;18.562;2022-07-21T01:49:18;100771.63;;;19.03;92.10
57024;BME280;42916;54.346;18.562;2022-07-21T01:51:45;100779.08;;;19.05;92.03
57024;BME280;42916;54.346;18.562;2022-07-21T01:54:12;100785.83;;;19.07;91.99
57024;BME280;42916;54.346;18.562;2022-07-21T01:56:39;100784.30;;;19.10;92.15
57024;BME280;42916;54.346;18.562;2022-07-21T01:59:06;100780.27;;;19.10;91.93
57024;BME280;42916;54.346;18.562;2022-07-21T02:01:34;100778.75;;;19.09;91.76
57024;BME280;42916;54.346;18.562;2022-07-21T02:04:03;100777.55;;;19.08;91.57
57024;BME280;42916;54.346;18.562;2022-07-21T02:06:31;100781.13;;;19.08;91.55
57024;BME280;42916;54.346;18.562;2022-07-21T02:08:58;100783.67;;;19.08;91.59
57024;BME280;42916;54.346;18.562;2022-07-21T02:11:25;100779.91;;;19.08;91.55
57024;BME280;42916;54.346;18.562;2022-07-21T02:13:52;100774.38;;;19.10;91.40
57024;BME280;42916;54.346;18.562;2022-07-21T02:16:18;100771.80;;;19.09;91.34
57024;BME280;42916;54.346;18.562;2022-07-21T02:18:45;100773.84;;;19.08;91.24
57024;BME280;42916;54.346;18.562;2022-07-21T02:21:12;100777.92;;;19.08;91.20
57024;BME280;42916;54.346;18.562;2022-07-21T02:23:39;100778.01;;;19.10;91.11
57024;BME280;42916;54.346;18.562;2022-07-21T02:26:05;100777.48;;;19.11;91.11
57024;BME280;42916;54.346;18.562;2022-07-21T02:28:32;100780.10;;;19.13;91.01
57024;BME280;42916;54.346;18.562;2022-07-21T02:30:59;100779.04;;;19.14;91.18
57024;BME280;42916;54.346;18.562;2022-07-21T02:33:26;100777.61;;;19.13;91.15
57024;BME280;42916;54.346;18.562;2022-07-21T02:35:52;100781.98;;;19.13;91.06
57024;BME280;42916;54.346;18.562;2022-07-21T02:38:19;100775.30;;;19.10;90.84
57024;BME280;42916;54.346;18.562;2022-07-21T02:40:46;100774.06;;;19.08;90.82
57024;BME280;42916;54.346;18.562;2022-07-21T02:43:12;100772.90;;;19.09;90.77
57024;BME280;42916;54.346;18.562;2022-07-21T02:45:39;100775.79;;;19.11;90.63
57024;BME280;42916;54.346;18.562;2022-07-21T02:48:09;100775.47;;;19.13;90.58
57024;BME280;42916;54.346;18.562;2022-07-21T02:50:40;100773.83;;;19.15;90.55
57024;BME280;42916;54.346;18.562;2022-07-21T02:53:13;100772.53;;;19.17;90.26
57024;BME280;42916;54.346;18.562;2022-07-21T02:55:40;100773.30;;;19.17;90.09
57024;BME280;42916;54.346;18.562;2022-07-21T02:58:13;100770.64;;;19.18;89.89
57024;BME280;42916;54.346;18.562;2022-07-21T03:01:02;100767.34;;;19.20;89.75
57024;BME280;42916;54.346;18.562;2022-07-21T03:03:33;100766.67;;;19.24;89.49
57024;BME280;42916;54.346;18.562;2022-07-21T03:06:00;100763.80;;;19.27;89.31
57024;BME280;42916;54.346;18.562;2022-07-21T03:08:27;100765.50;;;19.30;89.24
57024;BME280;42916;54.346;18.562;2022-07-21T03:10:55;100766.55;;;19.33;88.93
57024;BME280;42916;54.346;18.562;2022-07-21T03:13:22;100764.91;;;19.38;88.60
57024;BME280;42916;54.346;18.562;2022-07-21T03:15:49;100764.31;;;19.43;88.43
57024;BME280;42916;54.346;18.562;2022-07-21T03:18:16;100768.34;;;19.47;88.15
57024;BME280;42916;54.346;18.562;2022-07-21T03:20:43;100761.14;;;19.53;87.73
57024;BME280;42916;54.346;18.562;2022-07-21T03:23:11;100757.60;;;19.59;87.30
57024;BME280;42916;54.346;18.562;2022-07-21T03:25:37;100756.78;;;19.64;87.09
57024;BME280;42916;54.346;18.562;2022-07-21T03:28:04;100758.74;;;19.67;86.84
57024;BME280;42916;54.346;18.562;2022-07-21T03:30:33;100754.79;;;19.69;86.61
57024;BME280;42916;54.346;18.562;2022-07-21T03:33:00;100752.02;;;19.72;86.36
57024;BME280;42916;54.346;18.562;2022-07-21T03:35:27;100758.13;;;19.73;86.14
57024;BME280;42916;54.346;18.562;2022-07-21T03:37:58;100758.90;;;19.73;85.77
57024;BME280;42916;54.346;18.562;2022-07-21T03:40:30;100761.08;;;19.77;85.61
57024;BME280;42916;54.346;18.562;2022-07-21T03:43:00;100761.07;;;19.79;85.37
57024;BME280;42916;54.346;18.562;2022-07-21T03:45:28;100764.58;;;19.83;85.29
57024;BME280;42916;54.346;18.562;2022-07-21T03:48:00;100767.22;;;19.84;85.04
57024;BME280;42916;54.346;18.562;2022-07-21T03:50:27;100765.89;;;19.84;84.90
57024;BME280;42916;54.346;18.562;2022-07-21T03:52:54;100765.73;;;19.85;84.88
57024;BME280;42916;54.346;18.562;2022-07-21T03:55:21;100773.23;;;19.87;84.63
57024;BME280;42916;54.346;18.562;2022-07-21T04:00:19;100777.79;;;19.92;84.00
57024;BME280;42916;54.346;18.562;2022-07-21T04:02:47;100778.56;;;19.98;83.63
57024;BME280;42916;54.346;18.562;2022-07-21T04:05:15;100779.46;;;20.04;83.35
57024;BME280;42916;54.346;18.562;2022-07-21T04:07:44;100780.11;;;20.10;83.18
57024;BME280;42916;54.346;18.562;2022-07-21T04:10:13;100779.54;;;20.16;82.74
57024;BME280;42916;54.346;18.562;2022-07-21T04:12:40;100771.83;;;20.20;82.51
57024;BME280;42916;54.346;18.562;2022-07-21T04:15:08;100772.50;;;20.24;82.17
57024;BME280;42916;54.346;18.562;2022-07-21T04:17:36;100764.80;;;20.27;81.89
57024;BME280;42916;54.346;18.562;2022-07-21T04:20:04;100761.85;;;20.31;81.54
57024;BME280;42916;54.346;18.562;2022-07-21T04:22:32;100759.35;;;20.36;81.09
57024;BME280;42916;54.346;18.562;2022-07-21T04:24:58;100761.45;;;20.41;80.92
57024;BME280;42916;54.346;18.562;2022-07-21T04:27:26;100767.06;;;20.45;80.79
57024;BME280;42916;54.346;18.562;2022-07-21T04:29:53;100770.16;;;20.51;80.47
57024;BME280;42916;54.346;18.562;2022-07-21T04:32:21;100775.48;;;20.56;80.21
57024;BME280;42916;54.346;18.562;2022-07-21T04:34:48;100772.50;;;20.60;79.94
57024;BME280;42916;54.346;18.562;2022-07-21T04:37:15;100771.14;;;20.64;79.77
57024;BME280;42916;54.346;18.562;2022-07-21T04:39:42;100773.83;;;20.67;79.48
57024;BME280;42916;54.346;18.562;2022-07-21T04:42:09;100775.84;;;20.72;79.09
57024;BME280;42916;54.346;18.562;2022-07-21T04:44:36;100772.70;;;20.75;78.90
57024;BME280;42916;54.346;18.562;2022-07-21T04:47:03;100772.08;;;20.80;78.64
57024;BME280;42916;54.346;18.562;2022-07-21T04:49:29;100769.27;;;20.86;78.33
57024;BME280;42916;54.346;18.562;2022-07-21T04:51:56;100762.64;;;20.93;78.13
57024;BME280;42916;54.346;18.562;2022-07-21T04:54:23;100759.58;;;20.98;77.64
57024;BME280;42916;54.346;18.562;2022-07-21T04:56:49;100758.11;;;21.03;77.45
57024;BME280;42916;54.346;18.562;2022-07-21T04:59:16;100755.83;;;21.08;77.23
57024;BME280;42916;54.346;18.562;2022-07-21T05:01:43;100756.89;;;21.13;76.59
57024;BME280;42916;54.346;18.562;2022-07-21T05:04:10;100760.77;;;21.20;76.39
57024;BME280;42916;54.346;18.562;2022-07-21T05:06:36;100764.16;;;21.24;76.08
57024;BME280;42916;54.346;18.562;2022-07-21T05:09:03;100771.88;;;21.30;75.87
57024;BME280;42916;54.346;18.562;2022-07-21T05:11:30;100775.48;;;21.36;75.62
57024;BME280;42916;54.346;18.562;2022-07-21T05:13:57;100773.84;;;21.41;74.99
57024;BME280;42916;54.346;18.562;2022-07-21T05:16:24;100770.80;;;21.48;74.47
57024;BME280;42916;54.346;18.562;2022-07-21T05:18:50;100767.09;;;21.56;74.06
57024;BME280;42916;54.346;18.562;2022-07-21T05:21:17;100763.05;;;21.64;73.71
57024;BME280;42916;54.346;18.562;2022-07-21T05:23:44;100765.86;;;21.70;73.39
57024;BME280;42916;54.346;18.562;2022-07-21T05:26:12;100768.71;;;21.76;72.86
57024;BME280;42916;54.346;18.562;2022-07-21T05:28:39;100760.81;;;21.82;72.16
57024;BME280;42916;54.346;18.562;2022-07-21T05:31:07;100762.16;;;21.89;71.94
57024;BME280;42916;54.346;18.562;2022-07-21T05:33:35;100761.19;;;21.95;71.81
57024;BME280;42916;54.346;18.562;2022-07-21T05:36:05;100757.55;;;22.02;71.64
57024;BME280;42916;54.346;18.562;2022-07-21T05:38:32;100759.22;;;22.09;71.29
57024;BME280;42916;54.346;18.562;2022-07-21T05:40:59;100754.70;;;22.15;71.15
57024;BME280;42916;54.346;18.562;2022-07-21T05:43:26;100751.70;;;22.23;71.03
57024;BME280;42916;54.346;18.562;2022-07-21T05:45:53;100752.60;;;22.28;69.90
57024;BME280;42916;54.346;18.562;2022-07-21T05:48:19;100750.73;;;22.33;69.39
57024;BME280;42916;54.346;18.562;2022-07-21T05:50:46;100752.71;;;22.40;69.18
57024;BME280;42916;54.346;18.562;2022-07-21T05:53:13;100753.53;;;22.48;68.89
57024;BME280;42916;54.346;18.562;2022-07-21T05:55:40;100751.58;;;22.56;68.82
57024;BME280;42916;54.346;18.562;2022-07-21T05:58:07;100749.55;;;22.64;68.22
57024;BME280;42916;54.346;18.562;2022-07-21T06:00:34;100749.09;;;22.71;67.64
57024;BME280;42916;54.346;18.562;2022-07-21T06:03:00;100745.81;;;22.80;67.21
57024;BME280;42916;54.346;18.562;2022-07-21T06:05:27;100747.55;;;22.89;66.59
57024;BME280;42916;54.346;18.562;2022-07-21T06:07:54;100744.61;;;22.97;66.06
57024;BME280;42916;54.346;18.562;2022-07-21T06:10:20;100745.46;;;23.05;65.50
57024;BME280;42916;54.346;18.562;2022-07-21T06:12:47;100739.77;;;23.11;64.67
57024;BME280;42916;54.346;18.562;2022-07-21T06:15:13;100737.86;;;23.16;64.24
57024;BME280;42916;54.346;18.562;2022-07-21T06:17:42;100736.59;;;23.24;64.04
57024;BME280;42916;54.346;18.562;2022-07-21T06:20:10;100733.48;;;23.31;63.83
57024;BME280;42916;54.346;18.562;2022-07-21T06:22:38;100728.20;;;23.40;63.78
57024;BME280;42916;54.346;18.562;2022-07-21T06:25:05;100727.25;;;23.47;63.38
57024;BME280;42916;54.346;18.562;2022-07-21T06:27:32;100730.03;;;23.56;63.63
57024;BME280;42916;54.346;18.562;2022-07-21T06:29:59;100732.26;;;23.63;63.35
57024;BME280;42916;54.346;18.562;2022-07-21T06:32:26;100733.88;;;23.71;62.87
57024;BME280;42916;54.346;18.562;2022-07-21T06:34:52;100737.16;;;23.77;62.72
57024;BME280;42916;54.346;18.562;2022-07-21T06:37:19;100734.91;;;23.86;62.62
57024;BME280;42916;54.346;18.562;2022-07-21T06:39:48;100733.45;;;23.94;62.51
57024;BME280;42916;54.346;18.562;2022-07-21T06:42:14;100736.25;;;24.00;61.62
57024;BME280;42916;54.346;18.562;2022-07-21T06:44:42;100735.02;;;24.08;60.98
57024;BME280;42916;54.346;18.562;2022-07-21T06:47:08;100733.99;;;24.17;60.67
57024;BME280;42916;54.346;18.562;2022-07-21T06:49:35;100737.33;;;24.27;60.64
57024;BME280;42916;54.346;18.562;2022-07-21T06:52:02;100734.49;;;24.36;60.50
57024;BME280;42916;54.346;18.562;2022-07-21T06:54:28;100734.89;;;24.42;59.52
57024;BME280;42916;54.346;18.562;2022-07-21T06:56:55;100728.23;;;24.50;59.36
57024;BME280;42916;54.346;18.562;2022-07-21T06:59:22;100721.73;;;24.58;59.00
57024;BME280;42916;54.346;18.562;2022-07-21T07:01:48;100718.84;;;24.66;59.17
57024;BME280;42916;54.346;18.562;2022-07-21T07:04:15;100718.83;;;24.75;59.14
57024;BME280;42916;54.346;18.562;2022-07-21T07:06:41;100718.13;;;24.85;58.95
57024;BME280;42916;54.346;18.562;2022-07-21T07:09:08;100720.85;;;24.93;58.65
57024;BME280;42916;54.346;18.562;2022-07-21T07:11:35;100721.11;;;25.00;58.43
57024;BME280;42916;54.346;18.562;2022-07-21T07:14:01;100717.68;;;25.07;57.73
57024;BME280;42916;54.346;18.562;2022-07-21T07:16:28;100716.20;;;25.15;57.17
57024;BME280;42916;54.346;18.562;2022-07-21T07:18:55;100714.41;;;25.23;57.08
57024;BME280;42916;54.346;18.562;2022-07-21T07:21:21;100712.88;;;25.32;57.03
57024;BME280;42916;54.346;18.562;2022-07-21T07:23:48;100713.44;;;25.39;56.55
57024;BME280;42916;54.346;18.562;2022-07-21T07:26:15;100712.54;;;25.45;56.30
57024;BME280;42916;54.346;18.562;2022-07-21T07:28:41;100713.13;;;25.51;55.78
57024;BME280;42916;54.346;18.562;2022-07-21T07:31:10;100714.77;;;25.58;55.69
57024;BME280;42916;54.346;18.562;2022-07-21T07:33:37;100717.67;;;25.67;55.66
57024;BME280;42916;54.346;18.562;2022-07-21T07:36:04;100723.14;;;25.74;55.77
57024;BME280;42916;54.346;18.562;2022-07-21T07:38:31;100728.64;;;25.82;55.97
57024;BME280;42916;54.346;18.562;2022-07-21T07:40:57;100730.98;;;25.91;56.01
57024;BME280;42916;54.346;18.562;2022-07-21T07:43:24;100729.91;;;26.00;55.70
57024;BME280;42916;54.346;18.562;2022-07-21T07:45:51;100731.27;;;26.08;55.19
57024;BME280;42916;54.346;18.562;2022-07-21T07:48:17;100730.27;;;26.17;55.07
57024;BME280;42916;54.346;18.562;2022-07-21T07:50:44;100729.40;;;26.22;54.45
57024;BME280;42916;54.346;18.562;2022-07-21T07:53:11;100726.28;;;26.27;54.14
57024;BME280;42916;54.346;18.562;2022-07-21T07:55:38;100728.19;;;26.36;54.30
57024;BME280;42916;54.346;18.562;2022-07-21T07:58:04;100726.94;;;26.45;54.22
57024;BME280;42916;54.346;18.562;2022-07-21T08:00:31;100731.23;;;26.56;54.28
57024;BME280;42916;54.346;18.562;2022-07-21T08:02:58;100732.63;;;26.65;54.08
57024;BME280;42916;54.346;18.562;2022-07-21T08:05:24;100727.61;;;26.75;53.80
57024;BME280;42916;54.346;18.562;2022-07-21T08:07:51;100722.88;;;26.83;53.80
57024;BME280;42916;54.346;18.562;2022-07-21T08:10:18;100721.09;;;26.91;53.49
57024;BME280;42916;54.346;18.562;2022-07-21T08:12:44;100726.38;;;26.98;53.49
57024;BME280;42916;54.346;18.562;2022-07-21T08:15:11;100721.10;;;27.03;52.94
57024;BME280;42916;54.346;18.562;2022-07-21T08:17:38;100724.41;;;27.08;53.08
57024;BME280;42916;54.346;18.562;2022-07-21T08:20:05;100721.87;;;27.15;52.77
57024;BME280;42916;54.346;18.562;2022-07-21T08:22:32;100727.86;;;27.22;52.74
57024;BME280;42916;54.346;18.562;2022-07-21T08:24:59;100721.48;;;27.30;52.57
57024;BME280;42916;54.346;18.562;2022-07-21T08:27:26;100725.14;;;27.39;52.55
57024;BME280;42916;54.346;18.562;2022-07-21T08:29:53;100724.16;;;27.49;52.42
57024;BME280;42916;54.346;18.562;2022-07-21T08:32:20;100719.69;;;27.59;51.65
57024;BME280;42916;54.346;18.562;2022-07-21T08:34:47;100718.81;;;27.66;50.90
57024;BME280;42916;54.346;18.562;2022-07-21T08:37:13;100713.25;;;27.71;50.34
57024;BME280;42916;54.346;18.562;2022-07-21T08:39:40;100716.86;;;27.78;50.45
57024;BME280;42916;54.346;18.562;2022-07-21T08:42:07;100711.23;;;27.84;50.56
57024;BME280;42916;54.346;18.562;2022-07-21T08:44:35;100711.71;;;27.91;50.03
57024;BME280;42916;54.346;18.562;2022-07-21T08:47:01;100713.52;;;27.96;49.04
57024;BME280;42916;54.346;18.562;2022-07-21T08:49:33;100708.73;;;28.00;48.99
57024;BME280;42916;54.346;18.562;2022-07-21T08:52:00;100706.39;;;28.07;49.25
57024;BME280;42916;54.346;18.562;2022-07-21T08:54:27;100698.04;;;28.12;49.16
57024;BME280;42916;54.346;18.562;2022-07-21T08:56:54;100693.36;;;28.19;49.08
57024;BME280;42916;54.346;18.562;2022-07-21T08:59:21;100686.30;;;28.25;49.00
57024;BME280;42916;54.346;18.562;2022-07-21T09:01:49;100680.69;;;28.32;48.66
57024;BME280;42916;54.346;18.562;2022-07-21T09:04:34;100682.59;;;28.40;48.48
57024;BME280;42916;54.346;18.562;2022-07-21T09:07:03;100687.16;;;28.48;48.29
57024;BME280;42916;54.346;18.562;2022-07-21T09:09:33;100689.38;;;28.54;47.57
57024;BME280;42916;54.346;18.562;2022-07-21T09:12:01;100696.05;;;28.61;46.88
57024;BME280;42916;54.346;18.562;2022-07-21T09:14:32;100698.63;;;28.66;46.89
57024;BME280;42916;54.346;18.562;2022-07-21T09:17:02;100693.86;;;28.72;46.41
57024;BME280;42916;54.346;18.562;2022-07-21T09:19:34;100684.48;;;28.79;46.36
57024;BME280;42916;54.346;18.562;2022-07-21T09:22:05;100686.37;;;28.87;46.39
57024;BME280;42916;54.346;18.562;2022-07-21T09:24:36;100683.40;;;28.97;46.17
57024;BME280;42916;54.346;18.562;2022-07-21T09:27:16;100675.58;;;29.07;46.41
57024;BME280;42916;54.346;18.562;2022-07-21T09:29:55;100672.30;;;29.16;45.46
57024;BME280;42916;54.346;18.562;2022-07-21T09:32:35;100661.96;;;29.19;44.59
57024;BME280;42916;54.346;18.562;2022-07-21T09:35:09;100662.39;;;29.26;44.79
57024;BME280;42916;54.346;18.562;2022-07-21T09:37:38;100657.13;;;29.33;44.68
57024;BME280;42916;54.346;18.562;2022-07-21T09:42:39;100661.27;;;29.54;44.82
57024;BME280;42916;54.346;18.562;2022-07-21T09:45:12;100656.27;;;29.63;44.68
57024;BME280;42916;54.346;18.562;2022-07-21T09:47:40;100652.73;;;29.73;44.50
57024;BME280;42916;54.346;18.562;2022-07-21T09:50:09;100653.45;;;29.83;44.06
57024;BME280;42916;54.346;18.562;2022-07-21T09:52:38;100655.17;;;29.94;44.10
57024;BME280;42916;54.346;18.562;2022-07-21T09:55:08;100652.64;;;30.09;43.71
57024;BME280;42916;54.346;18.562;2022-07-21T09:57:35;100653.73;;;30.21;43.04
57024;BME280;42916;54.346;18.562;2022-07-21T10:00:07;100649.11;;;30.31;42.47
57024;BME280;42916;54.346;18.562;2022-07-21T10:02:35;100644.59;;;30.41;42.30
57024;BME280;42916;54.346;18.562;2022-07-21T10:07:32;100642.00;;;30.64;41.80
57024;BME280;42916;54.346;18.562;2022-07-21T10:09:59;100645.67;;;30.69;41.45
57024;BME280;42916;54.346;18.562;2022-07-21T10:12:27;100640.58;;;30.74;40.96
57024;BME280;42916;54.346;18.562;2022-07-21T10:14:54;100633.02;;;30.82;41.31
57024;BME280;42916;54.346;18.562;2022-07-21T10:17:22;100637.93;;;30.92;41.28
57024;BME280;42916;54.346;18.562;2022-07-21T10:25:29;100643.24;;;31.12;39.57
57024;BME280;42916;54.346;18.562;2022-07-21T10:28:16;100642.42;;;31.10;39.57
57024;BME280;42916;54.346;18.562;2022-07-21T10:30:50;100640.63;;;31.17;40.01
57024;BME280;42916;54.346;18.562;2022-07-21T10:33:19;100641.31;;;31.26;39.71
57024;BME280;42916;54.346;18.562;2022-07-21T10:35:49;100634.99;;;31.41;39.95
57024;BME280;42916;54.346;18.562;2022-07-21T10:38:26;100635.37;;;31.59;40.06
57024;BME280;42916;54.346;18.562;2022-07-21T10:40:56;100635.70;;;31.79;39.74
57024;BME280;42916;54.346;18.562;2022-07-21T10:45:53;100630.13;;;32.12;39.64
57024;BME280;42916;54.346;18.562;2022-07-21T10:48:49;100627.86;;;32.34;39.48
57024;BME280;42916;54.346;18.562;2022-07-21T10:51:16;100625.79;;;32.48;38.58
57024;BME280;42916;54.346;18.562;2022-07-21T10:53:43;100618.73;;;32.57;38.27
57024;BME280;42916;54.346;18.562;2022-07-21T10:56:26;100615.05;;;32.63;38.39
57024;BME280;42916;54.346;18.562;2022-07-21T10:58:53;100609.02;;;32.71;38.54
57024;BME280;42916;54.346;18.562;2022-07-21T11:01:22;100612.40;;;32.85;38.22
57024;BME280;42916;54.346;18.562;2022-07-21T11:04:16;100609.40;;;33.00;37.70
57024;BME280;42916;54.346;18.562;2022-07-21T11:06:44;100612.86;;;33.15;37.39
57024;BME280;42916;54.346;18.562;2022-07-21T11:09:13;100613.01;;;33.31;37.09
57024;BME280;42916;54.346;18.562;2022-07-21T11:12:03;100609.23;;;33.52;36.97
57024;BME280;42916;54.346;18.562;2022-07-21T11:14:39;100601.37;;;33.65;36.66
57024;BME280;42916;54.346;18.562;2022-07-21T11:17:08;100600.98;;;33.67;36.13
57024;BME280;42916;54.346;18.562;2022-07-21T11:19:46;100602.60;;;33.58;36.25
57024;BME280;42916;54.346;18.562;2022-07-21T11:22:25;100601.03;;;33.46;35.89
57024;BME280;42916;54.346;18.562;2022-07-21T11:25:05;100606.80;;;33.31;36.20
57024;BME280;42916;54.346;18.562;2022-07-21T11:27:34;100606.42;;;33.16;36.12
57024;BME280;42916;54.346;18.562;2022-07-21T11:30:07;100607.63;;;33.07;36.00
57024;BME280;42916;54.346;18.562;2022-07-21T11:32:35;100603.77;;;33.06;36.20
57024;BME280;42916;54.346;18.562;2022-07-21T11:35:04;100604.00;;;33.12;36.47
57024;BME280;42916;54.346;18.562;2022-07-21T11:40:06;100605.30;;;33.46;36.06
57024;BME280;42916;54.346;18.562;2022-07-21T11:42:34;100599.38;;;33.58;35.81
57024;BME280;42916;54.346;18.562;2022-07-21T11:45:02;100597.02;;;33.66;35.79
57024;BME280;42916;54.346;18.562;2022-07-21T11:47:29;100597.21;;;33.81;35.51
57024;BME280;42916;54.346;18.562;2022-07-21T11:49:58;100592.30;;;33.97;35.30
57024;BME280;42916;54.346;18.562;2022-07-21T11:52:27;100593.41;;;34.14;35.69
57024;BME280;42916;54.346;18.562;2022-07-21T11:54:55;100587.31;;;34.36;34.57
57024;BME280;42916;54.346;18.562;2022-07-21T11:57:22;100588.23;;;34.41;34.62
57024;BME280;42916;54.346;18.562;2022-07-21T11:59:51;100582.59;;;34.50;34.43
57024;BME280;42916;54.346;18.562;2022-07-21T12:02:28;100585.27;;;34.74;33.60
57024;BME280;42916;54.346;18.562;2022-07-21T12:05:01;100575.01;;;35.06;33.74
57024;BME280;42916;54.346;18.562;2022-07-21T12:07:38;100565.90;;;35.43;33.47
57024;BME280;42916;54.346;18.562;2022-07-21T12:10:13;100565.48;;;35.77;32.84
57024;BME280;42916;54.346;18.562;2022-07-21T12:12:44;100561.17;;;35.96;32.32
57024;BME280;42916;54.346;18.562;2022-07-21T12:20:41;100550.93;;;36.22;31.55
57024;BME280;42916;54.346;18.562;2022-07-21T12:25:43;100554.14;;;36.69;30.86
57024;BME280;42916;54.346;18.562;2022-07-21T12:28:10;100550.79;;;37.03;30.40
57024;BME280;42916;54.346;18.562;2022-07-21T12:30:38;100557.86;;;37.36;30.20
57024;BME280;42916;54.346;18.562;2022-07-21T12:35:44;100555.78;;;37.74;29.78
57024;BME280;42916;54.346;18.562;2022-07-21T12:38:14;100546.20;;;37.85;30.22
57024;BME280;42916;54.346;18.562;2022-07-21T12:40:47;100543.94;;;37.95;30.04
57024;BME280;42916;54.346;18.562;2022-07-21T12:43:17;100543.15;;;38.16;29.15
57024;BME280;42916;54.346;18.562;2022-07-21T12:48:18;100544.04;;;38.59;27.80
57024;BME280;42916;54.346;18.562;2022-07-21T12:51:03;100545.02;;;38.75;27.11
57024;BME280;42916;54.346;18.562;2022-07-21T12:53:46;100540.34;;;38.89;27.02
57024;BME280;42916;54.346;18.562;2022-07-21T12:56:34;100537.77;;;39.12;26.73
57024;BME280;42916;54.346;18.562;2022-07-21T12:59:02;100531.63;;;39.30;26.36
57024;BME280;42916;54.346;18.562;2022-07-21T13:01:31;100528.84;;;39.52;26.13
57024;BME280;42916;54.346;18.562;2022-07-21T13:03:59;100529.66;;;39.64;25.55
57024;BME280;42916;54.346;18.562;2022-07-21T13:06:27;100531.39;;;39.64;25.35
57024;BME280;42916;54.346;18.562;2022-07-21T13:08:54;100531.92;;;39.65;25.55
57024;BME280;42916;54.346;18.562;2022-07-21T13:11:20;100533.05;;;39.76;25.34
57024;BME280;42916;54.346;18.562;2022-07-21T13:13:48;100539.14;;;39.79;24.93
57024;BME280;42916;54.346;18.562;2022-07-21T13:16:17;100539.52;;;39.72;24.89
57024;BME280;42916;54.346;18.562;2022-07-21T13:18:44;100536.73;;;39.83;25.15